Time;durP1;ratioP1;P1;durP2;ratioP2;P2;SDS_P1;SDS_P2;PMS_P1;PMS_P2;Temp;Humidity;BMP_temperature;BMP_pressure;BME280_temperature;BME280_humidity;BME280_pressure;Samples;Min_cycle;Max_cycle;Signal;HPM_P1;HPM_P2
2023/08/30 00:02:18;;;;;;;7.97;3.00;;;;;;;;;;5086641;28;20039;-64
2023/08/30 00:04:45;;;;;;;4.78;2.45;;;;;;;;;;5090883;28;20027;-63
2023/08/30 00:07:12;;;;;;;5.80;4.05;;;;;;;;;;5091949;28;20028;-63
2023/08/30 00:09:38;;;;;;;2.75;2.10;;;;;;;;;;5092245;28;20024;-63
2023/08/30 00:12:05;;;;;;;4.72;2.53;;;;;;;;;;5091984;28;20027;-63
2023/08/30 00:14:32;;;;;;;4.63;2.03;;;;;;;;;;5091350;28;20107;-63
2023/08/30 00:16:59;;;;;;;4.35;2.80;;;;;;;;;;5087851;28;20493;-64
2023/08/30 00:19:25;;;;;;;4.35;2.88;;;;;;;;;;5090197;28;20043;-63
2023/08/30 00:21:52;;;;;;;4.65;3.08;;;;;;;;;;5090783;28;20020;-63
2023/08/30 00:24:19;;;;;;;6.43;2.95;;;;;;;;;;5072124;28;20035;-63
2023/08/30 00:26:45;;;;;;;4.35;2.83;;;;;;;;;;5093285;28;20030;-64
2023/08/30 00:29:12;;;;;;;8.98;3.03;;;;;;;;;;5095421;28;20016;-63
2023/08/30 00:31:39;;;;;;;5.07;2.30;;;;;;;;;;5095486;28;20024;-64
2023/08/30 00:34:05;;;;;;;7.07;3.75;;;;;;;;;;5095634;28;20123;-63
2023/08/30 00:36:32;;;;;;;5.90;3.00;;;;;;;;;;5094656;28;20086;-64
2023/08/30 00:38:58;;;;;;;4.78;2.95;;;;;;;;;;5092299;28;20027;-63
2023/08/30 00:41:25;;;;;;;6.15;3.75;;;;;;;;;;5090247;28;20481;-63
2023/08/30 00:43:52;;;;;;;6.03;3.90;;;;;;;;;;5090174;28;20077;-64
2023/08/30 00:46:18;;;;;;;7.07;3.10;;;;;;;;;;5089859;28;20082;-64
2023/08/30 00:48:45;;;;;;;5.93;3.75;;;;;;;;;;5092079;28;20069;-64
2023/08/30 00:51:12;;;;;;;8.35;3.97;;;;;;;;;;5094588;28;20378;-64
2023/08/30 00:53:39;;;;;;;35.88;4.22;;;;;;;;;;5094821;28;20062;-64
2023/08/30 00:56:05;;;;;;;6.53;3.13;;;;;;;;;;5094912;28;20028;-63
2023/08/30 00:58:32;;;;;;;5.57;3.38;;;;;;;;;;5095167;28;20471;-63
2023/08/30 01:00:59;;;;;;;6.28;3.28;;;;;;;;;;5092308;28;20016;-64
2023/08/30 01:03:26;;;;;;;5.20;3.47;;;;;;;;;;5089519;28;20026;-63
2023/08/30 01:05:53;;;;;;;4.45;2.90;;;;;;;;;;5089546;28;20103;-64
2023/08/30 01:08:20;;;;;;;12.88;4.85;;;;;;;;;;5089334;28;20024;-63
2023/08/30 01:10:56;;;;;;;5.43;3.38;;;;;;;;;;5091667;28;20024;-63
2023/08/30 01:13:23;;;;;;;5.10;3.47;;;;;;;;;;5094597;28;20025;-63
2023/08/30 01:15:51;;;;;;;3.53;2.63;;;;;;;;;;5094642;28;20036;-63
2023/08/30 01:18:23;;;;;;;17.83;3.00;;;;;;;;;;5075305;28;20021;-63
2023/08/30 01:20:52;;;;;;;6.70;3.47;;;;;;;;;;5074229;28;20029;-63
2023/08/30 01:23:18;;;;;;;6.63;4.70;;;;;;;;;;5071488;28;20052;-63
2023/08/30 01:26:03;;;;;;;4.60;3.53;;;;;;;;;;5069279;28;20020;-63
2023/08/30 01:28:31;;;;;;;5.88;4.32;;;;;;;;;;5088451;28;20035;-63
2023/08/30 01:30:58;;;;;;;6.23;4.00;;;;;;;;;;5089459;28;20072;-63
2023/08/30 01:33:27;;;;;;;8.87;5.40;;;;;;;;;;5091795;28;20035;-63
2023/08/30 01:35:55;;;;;;;4.80;3.13;;;;;;;;;;5094299;28;20035;-63
2023/08/30 01:38:22;;;;;;;6.13;3.20;;;;;;;;;;5094058;28;20076;-63
2023/08/30 01:40:49;;;;;;;7.93;4.47;;;;;;;;;;5088659;28;20029;-63
2023/08/30 01:43:17;;;;;;;6.43;3.17;;;;;;;;;;5073895;28;20367;-63
2023/08/30 01:45:44;;;;;;;10.50;2.60;;;;;;;;;;5070988;28;20032;-63
2023/08/30 01:48:15;;;;;;;5.00;2.33;;;;;;;;;;5068767;28;20117;-64
2023/08/30 01:50:42;;;;;;;9.20;2.83;;;;;;;;;;5071212;28;20024;-63
2023/08/30 01:53:09;;;;;;;2.93;2.07;;;;;;;;;;5089058;28;20035;-63
2023/08/30 01:55:37;;;;;;;5.63;1.87;;;;;;;;;;5086956;28;20442;-63
2023/08/30 01:58:04;;;;;;;4.60;2.57;;;;;;;;;;5073474;28;20021;-63
2023/08/30 02:00:30;;;;;;;3.27;2.33;;;;;;;;;;5073580;28;20031;-63
2023/08/30 02:02:58;;;;;;;1.57;1.13;;;;;;;;;;5073540;28;20103;-63
2023/08/30 02:05:24;;;;;;;2.03;1.30;;;;;;;;;;5073139;28;20096;-64
2023/08/30 02:07:54;;;;;;;2.67;1.73;;;;;;;;;;5091031;28;20493;-63
2023/08/30 02:10:32;;;;;;;3.50;2.07;;;;;;;;;;5088949;28;20024;-63
2023/08/30 02:12:59;;;;;;;3.60;1.27;;;;;;;;;;5088730;28;20048;-63
2023/08/30 02:15:27;;;;;;;7.03;2.23;;;;;;;;;;5088487;28;20036;-63
2023/08/30 02:17:54;;;;;;;7.37;2.53;;;;;;;;;;5084904;28;20025;-63
2023/08/30 02:20:21;;;;;;;3.73;2.43;;;;;;;;;;5073192;28;20588;-63
2023/08/30 02:22:47;;;;;;;3.53;1.90;;;;;;;;;;5073954;28;20032;-63
2023/08/30 02:25:15;;;;;;;3.20;2.10;;;;;;;;;;5073204;28;20025;-62
2023/08/30 02:27:41;;;;;;;2.67;1.73;;;;;;;;;;5072821;28;20036;-62
2023/08/30 02:30:08;;;;;;;3.23;1.10;;;;;;;;;;5078618;28;20024;-63
2023/08/30 02:32:35;;;;;;;2.10;1.37;;;;;;;;;;5088026;28;20497;-63
2023/08/30 02:35:03;;;;;;;3.37;1.60;;;;;;;;;;5087568;28;20072;-62
2023/08/30 02:37:30;;;;;;;1.30;1.07;;;;;;;;;;5088182;28;20260;-62
2023/08/30 02:39:56;;;;;;;2.20;1.47;;;;;;;;;;5089479;28;20020;-62
2023/08/30 02:42:23;;;;;;;2.40;1.73;;;;;;;;;;5083086;28;20047;-62
2023/08/30 02:44:50;;;;;;;2.93;1.57;;;;;;;;;;5072982;28;20088;-62
2023/08/30 02:47:16;;;;;;;6.83;1.53;;;;;;;;;;5055181;28;20032;-62
2023/08/30 02:49:43;;;;;;;4.07;1.57;;;;;;;;;;5072437;28;20095;-62
2023/08/30 02:52:10;;;;;;;4.17;1.93;;;;;;;;;;5070275;28;20085;-62
2023/08/30 02:54:36;;;;;;;2.93;2.07;;;;;;;;;;5077063;28;20034;-63
2023/08/30 02:57:04;;;;;;;1.30;1.10;;;;;;;;;;5087712;28;20101;-63
2023/08/30 02:59:30;;;;;;;18.57;2.17;;;;;;;;;;5087816;28;20446;-62
2023/08/30 03:01:58;;;;;;;2.70;1.70;;;;;;;;;;5088895;28;20378;-62
2023/08/30 03:04:25;;;;;;;4.53;2.53;;;;;;;;;;5092551;28;20034;-62
2023/08/30 03:06:51;;;;;;;3.57;2.03;;;;;;;;;;5090826;28;20035;-63
2023/08/30 03:09:18;;;;;;;2.67;1.57;;;;;;;;;;5092671;28;20030;-62
2023/08/30 03:11:45;;;;;;;4.87;1.50;;;;;;;;;;5092705;28;20103;-62
2023/08/30 03:14:13;;;;;;;2.53;1.43;;;;;;;;;;5087547;28;20427;-63
2023/08/30 03:16:40;;;;;;;1.70;1.13;;;;;;;;;;5087217;28;20066;-63
2023/08/30 03:19:07;;;;;;;1.30;1.03;;;;;;;;;;5087535;28;20024;-62
2023/08/30 03:21:34;;;;;;;2.00;1.03;;;;;;;;;;5078677;28;20031;-62
2023/08/30 03:24:00;;;;;;;3.23;1.87;;;;;;;;;;5067584;28;20443;-62
2023/08/30 03:26:27;;;;;;;6.13;2.57;;;;;;;;;;5072296;28;20024;-62
2023/08/30 03:28:54;;;;;;;4.40;2.40;;;;;;;;;;5072175;28;20036;-62
2023/08/30 03:31:21;;;;;;;2.37;1.17;;;;;;;;;;5077617;28;20020;-62
2023/08/30 03:33:48;;;;;;;1.30;1.00;;;;;;;;;;5092346;28;20032;-62
2023/08/30 03:36:15;;;;;;;1.53;1.03;;;;;;;;;;5091492;28;20106;-62
2023/08/30 03:38:43;;;;;;;2.87;1.70;;;;;;;;;;5087227;28;20016;-63
2023/08/30 03:41:11;;;;;;;4.47;1.63;;;;;;;;;;5087458;28;20100;-63
2023/08/30 03:43:37;;;;;;;5.20;2.67;;;;;;;;;;5079811;28;20733;-63
2023/08/30 03:46:04;;;;;;;5.77;2.07;;;;;;;;;;5067156;28;20048;-63
2023/08/30 03:48:31;;;;;;;4.27;1.60;;;;;;;;;;5072234;28;20029;-62
2023/08/30 03:50:58;;;;;;;2.43;1.40;;;;;;;;;;5072005;28;20522;-63
2023/08/30 03:53:25;;;;;;;2.57;1.43;;;;;;;;;;5075785;28;20027;-62
2023/08/30 03:55:52;;;;;;;3.37;2.00;;;;;;;;;;5084379;28;20040;-63
2023/08/30 03:58:19;;;;;;;2.23;1.50;;;;;;;;;;5095824;28;20023;-63
2023/08/30 04:00:46;;;;;;;4.93;1.93;;;;;;;;;;5091208;28;20050;-63
2023/08/30 04:03:14;;;;;;;3.27;1.80;;;;;;;;;;5091143;28;20020;-62
2023/08/30 04:05:41;;;;;;;12.37;2.20;;;;;;;;;;5091065;28;20055;-63
2023/08/30 04:08:08;;;;;;;2.97;1.60;;;;;;;;;;5077928;28;21267;-63
2023/08/30 04:10:38;;;;;;;2.57;1.13;;;;;;;;;;5075343;28;20078;-62
2023/08/30 04:13:05;;;;;;;7.23;2.00;;;;;;;;;;5057535;28;20029;-63
2023/08/30 04:15:38;;;;;;;0.90;0.70;;;;;;;;;;5075389;28;20127;-63
2023/08/30 04:18:06;;;;;;;1.90;1.37;;;;;;;;;;5075651;28;20548;-63
2023/08/30 04:20:33;;;;;;;1.10;0.83;;;;;;;;;;5076269;28;20032;-62
2023/08/30 04:23:03;;;;;;;2.23;1.37;;;;;;;;;;5070486;28;20395;-63
2023/08/30 04:25:30;;;;;;;2.97;1.13;;;;;;;;;;5070170;28;20075;-62
2023/08/30 04:27:57;;;;;;;27.50;1.73;;;;;;;;;;5070283;28;20032;-62
2023/08/30 04:30:24;;;;;;;1.73;1.07;;;;;;;;;;5070208;28;20020;-62
2023/08/30 04:32:51;;;;;;;10.83;1.30;;;;;;;;;;5088788;28;20085;-62
2023/08/30 04:35:18;;;;;;;2.63;1.17;;;;;;;;;;5095422;28;20073;-62
2023/08/30 04:37:44;;;;;;;5.30;1.80;;;;;;;;;;5095501;28;20027;-62
2023/08/30 04:40:11;;;;;;;3.67;2.30;;;;;;;;;;5094958;28;20030;-62
2023/08/30 04:42:41;;;;;;;6.30;1.93;;;;;;;;;;5095706;28;20458;-62
2023/08/30 04:45:09;;;;;;;3.93;1.70;;;;;;;;;;5071061;28;20042;-62
2023/08/30 04:47:36;;;;;;;2.63;1.20;;;;;;;;;;5069702;28;20127;-62
2023/08/30 04:50:03;;;;;;;3.07;1.67;;;;;;;;;;5070044;28;20479;-62
2023/08/30 04:52:30;;;;;;;8.90;1.93;;;;;;;;;;5069851;28;20107;-62
2023/08/30 04:54:56;;;;;;;2.57;1.97;;;;;;;;;;5074240;28;20106;-62
2023/08/30 04:57:23;;;;;;;1.53;1.20;;;;;;;;;;5092851;28;20372;-62
2023/08/30 04:59:50;;;;;;;3.90;1.87;;;;;;;;;;5095249;28;20530;-62
2023/08/30 05:02:16;;;;;;;4.03;2.17;;;;;;;;;;5076871;28;20054;-62
2023/08/30 05:04:43;;;;;;;4.17;1.20;;;;;;;;;;5073944;28;20543;-62
2023/08/30 05:07:10;;;;;;;5.80;1.60;;;;;;;;;;5071262;28;20073;-62
2023/08/30 05:09:36;;;;;;;2.60;1.70;;;;;;;;;;5089888;28;20432;-63
2023/08/30 05:12:03;;;;;;;19.13;1.90;;;;;;;;;;5089416;28;20020;-62
2023/08/30 05:14:30;;;;;;;2.77;1.87;;;;;;;;;;5089618;28;20389;-62
2023/08/30 05:16:57;;;;;;;2.57;1.53;;;;;;;;;;5093636;28;20039;-62
2023/08/30 05:19:23;;;;;;;2.90;1.40;;;;;;;;;;5089685;28;20367;-62
2023/08/30 05:21:54;;;;;;;1.30;1.00;;;;;;;;;;5074247;28;20024;-62
2023/08/30 05:24:22;;;;;;;2.00;1.27;;;;;;;;;;5074334;28;20114;-62
2023/08/30 05:26:48;;;;;;;2.93;1.43;;;;;;;;;;5074280;28;20173;-62
2023/08/30 05:29:15;;;;;;;1.97;1.27;;;;;;;;;;5069802;28;20043;-62
2023/08/30 05:31:42;;;;;;;5.70;2.13;;;;;;;;;;5081190;28;20265;-62
2023/08/30 05:34:09;;;;;;;2.57;1.47;;;;;;;;;;5089231;28;20166;-62
2023/08/30 05:36:36;;;;;;;3.37;2.20;;;;;;;;;;5089149;28;20024;-62
2023/08/30 05:39:03;;;;;;;2.57;1.63;;;;;;;;;;5087973;28;20025;-62
2023/08/30 05:41:30;;;;;;;3.40;2.13;;;;;;;;;;5073987;28;20077;-62
2023/08/30 05:43:57;;;;;;;7.53;1.77;;;;;;;;;;5073680;28;20035;-62
2023/08/30 05:46:23;;;;;;;2.73;1.50;;;;;;;;;;5074028;28;20491;-62
2023/08/30 05:48:50;;;;;;;4.20;1.70;;;;;;;;;;5075828;28;20031;-62
2023/08/30 05:51:17;;;;;;;4.07;1.47;;;;;;;;;;5086629;28;20033;-62
2023/08/30 05:53:44;;;;;;;2.20;1.60;;;;;;;;;;5068409;28;20090;-62
2023/08/30 05:56:10;;;;;;;5.73;2.17;;;;;;;;;;5068654;28;20495;-62
2023/08/30 05:58:38;;;;;;;2.43;1.60;;;;;;;;;;5068575;28;20020;-62
2023/08/30 06:01:07;;;;;;;1.73;1.30;;;;;;;;;;5076800;28;20120;-62
2023/08/30 06:03:34;;;;;;;5.93;1.83;;;;;;;;;;5088104;28;20028;-62
2023/08/30 06:06:01;;;;;;;3.93;2.37;;;;;;;;;;5073550;28;20111;-62
2023/08/30 06:08:28;;;;;;;1.90;1.43;;;;;;;;;;5073544;28;20527;-62
2023/08/30 06:10:54;;;;;;;2.67;1.73;;;;;;;;;;5073357;28;20032;-62
2023/08/30 06:13:21;;;;;;;3.80;1.93;;;;;;;;;;5071339;28;20032;-62
2023/08/30 06:15:51;;;;;;;2.70;1.63;;;;;;;;;;5066908;28;20036;-62
2023/08/30 06:18:18;;;;;;;4.97;1.87;;;;;;;;;;5068145;28;20025;-62
2023/08/30 06:20:45;;;;;;;2.13;1.50;;;;;;;;;;5068152;28;20379;-62
2023/08/30 06:23:12;;;;;;;1.90;1.37;;;;;;;;;;5071241;28;20071;-62
2023/08/30 06:25:39;;;;;;;1.83;1.47;;;;;;;;;;5090773;28;20027;-62
2023/08/30 06:28:06;;;;;;;2.80;1.60;;;;;;;;;;5093174;28;20055;-62
2023/08/30 06:30:32;;;;;;;3.23;1.60;;;;;;;;;;5074153;28;20032;-62
2023/08/30 06:33:00;;;;;;;5.03;1.70;;;;;;;;;;5073342;28;20367;-62
2023/08/30 06:35:26;;;;;;;2.00;1.47;;;;;;;;;;5069682;28;20089;-62
2023/08/30 06:37:53;;;;;;;2.53;1.53;;;;;;;;;;5067745;28;20020;-62
2023/08/30 06:40:20;;;;;;;1.00;0.90;;;;;;;;;;5082717;28;20032;-61
2023/08/30 06:42:47;;;;;;;4.13;2.63;;;;;;;;;;5088005;28;20025;-61
2023/08/30 06:45:15;;;;;;;2.43;1.37;;;;;;;;;;5090721;28;20020;-62
2023/08/30 06:47:42;;;;;;;3.97;1.60;;;;;;;;;;5092424;28;20020;-62
2023/08/30 06:50:09;;;;;;;4.90;2.77;;;;;;;;;;5093004;28;20020;-62
2023/08/30 06:52:36;;;;;;;2.93;2.00;;;;;;;;;;5075561;28;20016;-62
2023/08/30 06:55:03;;;;;;;2.87;1.70;;;;;;;;;;5072415;28;20024;-62
2023/08/30 06:57:30;;;;;;;3.50;1.70;;;;;;;;;;5069616;28;20032;-62
2023/08/30 06:59:58;;;;;;;2.50;1.53;;;;;;;;;;5067519;28;20028;-62
2023/08/30 07:02:24;;;;;;;20.40;2.30;;;;;;;;;;5067247;28;20067;-61
2023/08/30 07:04:51;;;;;;;2.07;1.43;;;;;;;;;;5083481;28;20028;-63
2023/08/30 07:07:18;;;;;;;3.70;1.70;;;;;;;;;;5090113;28;20028;-61
2023/08/30 07:09:44;;;;;;;6.97;1.47;;;;;;;;;;5092764;28;20028;-61
2023/08/30 07:12:11;;;;;;;1.83;1.37;;;;;;;;;;5093001;28;20375;-62
2023/08/30 07:14:38;;;;;;;4.30;1.40;;;;;;;;;;5092410;28;20077;-62
2023/08/30 07:17:05;;;;;;;2.57;1.90;;;;;;;;;;5092379;28;20462;-62
2023/08/30 07:19:31;;;;;;;1.43;1.00;;;;;;;;;;5089497;28;20373;-62
2023/08/30 07:21:58;;;;;;;4.13;1.33;;;;;;;;;;5087393;28;20024;-61
2023/08/30 07:24:25;;;;;;;1.93;1.60;;;;;;;;;;5087485;28;20107;-61
2023/08/30 07:26:52;;;;;;;1.80;1.27;;;;;;;;;;5087089;28;20054;-62
2023/08/30 07:29:18;;;;;;;23.33;1.67;;;;;;;;;;5069886;28;20376;-61
2023/08/30 07:31:45;;;;;;;6.77;1.57;;;;;;;;;;5072294;28;20025;-61
2023/08/30 07:34:12;;;;;;;6.03;2.07;;;;;;;;;;5072375;28;20029;-61
2023/08/30 07:36:39;;;;;;;4.63;1.40;;;;;;;;;;5071652;28;20091;-61
2023/08/30 07:39:05;;;;;;;4.90;2.27;;;;;;;;;;5074904;28;20154;-61
2023/08/30 07:41:35;;;;;;;1.83;1.00;;;;;;;;;;5089887;28;20398;-62
2023/08/30 07:44:02;;;;;;;3.77;1.73;;;;;;;;;;5087377;28;20048;-62
2023/08/30 07:46:29;;;;;;;2.07;1.40;;;;;;;;;;5087331;28;20386;-61
2023/08/30 07:48:56;;;;;;;3.30;1.20;;;;;;;;;;5075667;28;20360;-61
2023/08/30 07:51:22;;;;;;;3.33;1.60;;;;;;;;;;5068354;28;20024;-61
2023/08/30 07:53:49;;;;;;;2.77;1.50;;;;;;;;;;5072145;28;20632;-61
2023/08/30 07:56:16;;;;;;;2.23;1.23;;;;;;;;;;5071876;28;20434;-62
2023/08/30 07:58:42;;;;;;;1.03;0.90;;;;;;;;;;5080631;28;20115;-61
2023/08/30 08:01:09;;;;;;;1.93;0.97;;;;;;;;;;5092317;28;20028;-61
2023/08/30 08:03:36;;;;;;;1.47;0.90;;;;;;;;;;5090040;28;20028;-62
2023/08/30 08:06:03;;;;;;;2.03;1.23;;;;;;;;;;5087121;28;20028;-61
2023/08/30 08:08:30;;;;;;;1.90;1.20;;;;;;;;;;5086810;28;20438;-61
2023/08/30 08:10:56;;;;;;;5.53;1.63;;;;;;;;;;5078149;28;20028;-61
2023/08/30 08:13:23;;;;;;;0.90;0.67;;;;;;;;;;5068068;28;20027;-61
2023/08/30 08:15:50;;;;;;;2.10;1.27;;;;;;;;;;5071959;28;20033;-61
2023/08/30 08:18:16;;;;;;;2.10;1.10;;;;;;;;;;5071753;28;20107;-61
2023/08/30 08:20:44;;;;;;;1.30;0.87;;;;;;;;;;5071681;28;20104;-61
2023/08/30 08:23:10;;;;;;;2.17;1.53;;;;;;;;;;5081573;28;20028;-61
2023/08/30 08:25:37;;;;;;;2.93;1.43;;;;;;;;;;5089799;28;20380;-62
2023/08/30 08:28:04;;;;;;;2.83;1.23;;;;;;;;;;5086848;28;20032;-61
2023/08/30 08:30:30;;;;;;;5.20;1.60;;;;;;;;;;5086727;28;20052;-61
2023/08/30 08:32:58;;;;;;;1.37;1.07;;;;;;;;;;5067398;28;20107;-62
2023/08/30 08:35:25;;;;;;;0.70;0.70;;;;;;;;;;5067758;28;20459;-61
2023/08/30 08:37:52;;;;;;;1.93;1.30;;;;;;;;;;5071585;28;20036;-61
2023/08/30 08:40:19;;;;;;;1.40;1.07;;;;;;;;;;5074248;28;20352;-61
2023/08/30 08:42:46;;;;;;;1.27;1.03;;;;;;;;;;5091694;28;20479;-61
2023/08/30 08:45:13;;;;;;;6.10;1.37;;;;;;;;;;5095191;28;20483;-61
2023/08/30 08:47:40;;;;;;;1.70;1.30;;;;;;;;;;5093711;28;20592;-61
2023/08/30 08:50:07;;;;;;;3.03;1.53;;;;;;;;;;5090038;28;20023;-61
2023/08/30 08:52:34;;;;;;;1.10;0.77;;;;;;;;;;5089560;28;20575;-61
2023/08/30 08:55:01;;;;;;;1.87;1.43;;;;;;;;;;5069778;28;20475;-61
2023/08/30 08:57:32;;;;;;;12.60;1.77;;;;;;;;;;5070504;28;20039;-61
2023/08/30 08:59:59;;;;;;;5.03;1.73;;;;;;;;;;5075038;28;20022;-61
2023/08/30 09:02:26;;;;;;;2.80;1.33;;;;;;;;;;5074758;28;20529;-61
2023/08/30 09:04:53;;;;;;;6.23;1.30;;;;;;;;;;5076742;28;20039;-61
2023/08/30 09:07:20;;;;;;;1.97;1.27;;;;;;;;;;5094895;28;20027;-61
2023/08/30 09:09:47;;;;;;;2.33;1.70;;;;;;;;;;5093533;28;20077;-61
2023/08/30 09:12:14;;;;;;;7.40;1.60;;;;;;;;;;5089680;28;20123;-61
2023/08/30 09:14:40;;;;;;;2.67;1.63;;;;;;;;;;5074776;28;20486;-62
2023/08/30 09:17:07;;;;;;;2.30;1.80;;;;;;;;;;5069491;28;20541;-61
2023/08/30 09:19:34;;;;;;;2.83;1.93;;;;;;;;;;5070129;28;20016;-61
2023/08/30 09:22:01;;;;;;;5.90;1.93;;;;;;;;;;5074111;28;20078;-61
2023/08/30 09:24:38;;;;;;;4.67;2.73;;;;;;;;;;5086357;28;20024;-61
2023/08/30 09:27:05;;;;;;;1.83;1.37;;;;;;;;;;5094576;28;20039;-61
2023/08/30 09:29:32;;;;;;;1.67;1.10;;;;;;;;;;5094499;28;20107;-61
2023/08/30 09:31:58;;;;;;;2.40;1.47;;;;;;;;;;5093394;28;20036;-61
2023/08/30 09:34:28;;;;;;;2.43;1.63;;;;;;;;;;5089299;28;20024;-61
2023/08/30 09:36:55;;;;;;;3.63;1.40;;;;;;;;;;5071035;28;20093;-61
2023/08/30 09:39:22;;;;;;;2.87;1.90;;;;;;;;;;5069018;28;20436;-61
2023/08/30 09:41:49;;;;;;;2.93;1.30;;;;;;;;;;5069561;28;20078;-63
2023/08/30 09:44:17;;;;;;;3.90;1.33;;;;;;;;;;5074052;28;20073;-63
2023/08/30 09:46:44;;;;;;;3.17;1.50;;;;;;;;;;5074948;28;20020;-63
2023/08/30 09:49:12;;;;;;;7.03;2.20;;;;;;;;;;5073873;28;20078;-63
2023/08/30 09:51:42;;;;;;;4.73;1.93;;;;;;;;;;5073904;28;20466;-63
2023/08/30 09:54:29;;;;;;;1.40;1.00;;;;;;;;;;5072282;28;20032;-63
2023/08/30 09:56:57;;;;;;;2.93;1.90;;;;;;;;;;5073597;28;20378;-63
2023/08/30 09:59:24;;;;;;;2.63;1.17;;;;;;;;;;5089150;28;20024;-63
2023/08/30 10:01:53;;;;;;;1.90;1.40;;;;;;;;;;5089042;28;20379;-64
2023/08/30 10:04:21;;;;;;;4.70;2.07;;;;;;;;;;5090083;28;20113;-64
2023/08/30 10:06:48;;;;;;;3.77;1.83;;;;;;;;;;5089240;28;20032;-63
2023/08/30 10:09:15;;;;;;;2.80;1.60;;;;;;;;;;5073593;28;20027;-63
2023/08/30 10:11:42;;;;;;;2.53;1.90;;;;;;;;;;5073127;28;20537;-63
2023/08/30 10:14:09;;;;;;;4.07;1.97;;;;;;;;;;5073647;28;20380;-61
2023/08/30 10:16:48;;;;;;;4.00;1.97;;;;;;;;;;5073286;28;20036;-62
2023/08/30 10:19:16;;;;;;;2.97;1.53;;;;;;;;;;5088201;28;20026;-63
2023/08/30 10:21:47;;;;;;;1.67;1.40;;;;;;;;;;5088418;28;20093;-63
2023/08/30 10:24:15;;;;;;;2.03;1.43;;;;;;;;;;5088488;28;20028;-63
2023/08/30 10:26:43;;;;;;;1.83;1.33;;;;;;;;;;5086836;28;20042;-63
2023/08/30 10:29:11;;;;;;;1.57;1.07;;;;;;;;;;5072996;28;20028;-63
2023/08/30 10:31:39;;;;;;;2.10;1.40;;;;;;;;;;5073061;28;20367;-63
2023/08/30 10:34:14;;;;;;;1.90;1.50;;;;;;;;;;5073008;28;20058;-63
2023/08/30 10:36:42;;;;;;;1.77;1.23;;;;;;;;;;5075146;28;20081;-63
2023/08/30 10:39:13;;;;;;;1.77;1.13;;;;;;;;;;5090261;28;20028;-63
2023/08/30 10:41:55;;;;;;;8.50;1.70;;;;;;;;;;5070178;28;20443;-63
2023/08/30 10:44:22;;;;;;;2.97;2.00;;;;;;;;;;5087984;28;20024;-63
2023/08/30 10:46:58;;;;;;;3.90;1.10;;;;;;;;;;5084384;28;20024;-63
2023/08/30 10:49:25;;;;;;;3.43;2.20;;;;;;;;;;5070271;28;20364;-63
2023/08/30 10:51:59;;;;;;;3.20;1.63;;;;;;;;;;5072788;28;20028;-63
2023/08/30 10:54:25;;;;;;;3.07;1.77;;;;;;;;;;5072416;28;20103;-63
2023/08/30 10:56:52;;;;;;;2.37;1.47;;;;;;;;;;5075575;28;20474;-63
2023/08/30 10:59:23;;;;;;;0.90;0.77;;;;;;;;;;5093048;28;20024;-63
2023/08/30 11:01:55;;;;;;;1.07;0.93;;;;;;;;;;5089061;28;21155;-63
2023/08/30 11:04:22;;;;;;;2.07;1.43;;;;;;;;;;5087269;28;20424;-64
2023/08/30 11:06:51;;;;;;;2.60;1.60;;;;;;;;;;5085663;28;20020;-64
2023/08/30 11:09:21;;;;;;;1.67;1.07;;;;;;;;;;5074897;28;20048;-63
2023/08/30 11:11:48;;;;;;;2.63;1.47;;;;;;;;;;5089934;28;20386;-63
2023/08/30 11:14:15;;;;;;;1.70;1.23;;;;;;;;;;5092716;28;20028;-63
2023/08/30 11:16:42;;;;;;;2.57;1.53;;;;;;;;;;5072825;28;20028;-63
2023/08/30 11:19:09;;;;;;;2.87;1.53;;;;;;;;;;5072374;28;20032;-62
2023/08/30 11:21:40;;;;;;;3.13;1.63;;;;;;;;;;5071924;28;20502;-63
2023/08/30 11:24:07;;;;;;;3.80;1.60;;;;;;;;;;5068800;28;20032;-63
2023/08/30 11:26:34;;;;;;;2.23;1.80;;;;;;;;;;5067178;28;20067;-65
2023/08/30 11:29:07;;;;;;;4.20;1.73;;;;;;;;;;5086787;28;20024;-63
2023/08/30 11:31:34;;;;;;;1.43;1.07;;;;;;;;;;5087383;28;20103;-63
2023/08/30 11:34:01;;;;;;;3.40;2.00;;;;;;;;;;5090300;28;20427;-63
2023/08/30 11:36:28;;;;;;;2.17;1.50;;;;;;;;;;5077644;28;20075;-63
2023/08/30 11:38:55;;;;;;;6.87;1.93;;;;;;;;;;5072226;28;20095;-62
2023/08/30 11:41:22;;;;;;;3.67;1.77;;;;;;;;;;5072343;28;20375;-62
2023/08/30 11:43:49;;;;;;;2.23;1.50;;;;;;;;;;5072097;28;20027;-63
2023/08/30 11:46:17;;;;;;;2.50;1.90;;;;;;;;;;5079767;28;20023;-63
2023/08/30 11:48:44;;;;;;;2.30;1.53;;;;;;;;;;5087386;28;20474;-63
2023/08/30 11:51:11;;;;;;;3.77;1.90;;;;;;;;;;5086830;28;20109;-63
2023/08/30 11:53:39;;;;;;;2.43;1.73;;;;;;;;;;5087042;28;20028;-64
2023/08/30 11:56:07;;;;;;;3.00;1.80;;;;;;;;;;5079811;28;20067;-63
2023/08/30 11:58:34;;;;;;;1.83;1.50;;;;;;;;;;5054270;28;20383;-63
2023/08/30 12:01:01;;;;;;;2.47;1.70;;;;;;;;;;5072069;28;20417;-63
2023/08/30 12:03:31;;;;;;;1.93;1.47;;;;;;;;;;5071917;28;20047;-63
2023/08/30 12:05:58;;;;;;;14.27;2.47;;;;;;;;;;5079050;28;20056;-63
2023/08/30 12:08:25;;;;;;;6.27;3.10;;;;;;;;;;5068723;28;20032;-63
2023/08/30 12:10:51;;;;;;;3.57;2.47;;;;;;;;;;5066731;28;20443;-63
2023/08/30 12:13:24;;;;;;;4.20;2.30;;;;;;;;;;5067036;28;20521;-63
2023/08/30 12:15:55;;;;;;;2.87;1.83;;;;;;;;;;5070571;28;20029;-63
2023/08/30 12:18:27;;;;;;;8.13;1.77;;;;;;;;;;5092352;28;20208;-63
2023/08/30 12:20:56;;;;;;;15.17;3.00;;;;;;;;;;5095525;28;20353;-63
2023/08/30 12:23:24;;;;;;;20.93;1.87;;;;;;;;;;5075491;28;20394;-62
2023/08/30 12:26:06;;;;;;;1.93;1.50;;;;;;;;;;5075576;28;20019;-63
2023/08/30 12:28:34;;;;;;;3.87;1.80;;;;;;;;;;5074703;28;20031;-63
2023/08/30 12:31:01;;;;;;;5.63;1.73;;;;;;;;;;5071036;28;20425;-63
2023/08/30 12:33:29;;;;;;;11.37;1.73;;;;;;;;;;5070479;28;20025;-63
2023/08/30 12:35:56;;;;;;;2.40;1.50;;;;;;;;;;5070224;28;20033;-63
2023/08/30 12:38:23;;;;;;;2.50;1.80;;;;;;;;;;5070112;28;20058;-63
2023/08/30 12:40:51;;;;;;;3.00;1.97;;;;;;;;;;5073892;28;20078;-63
2023/08/30 12:43:18;;;;;;;3.37;2.07;;;;;;;;;;5093203;28;20032;-63
2023/08/30 12:45:45;;;;;;;10.33;2.13;;;;;;;;;;5095325;28;20035;-63
2023/08/30 12:48:15;;;;;;;2.27;1.80;;;;;;;;;;5095356;28;20028;-63
2023/08/30 12:50:42;;;;;;;2.37;1.90;;;;;;;;;;5095336;28;20038;-63
2023/08/30 12:53:09;;;;;;;3.80;2.47;;;;;;;;;;5073508;28;20516;-63
2023/08/30 12:55:36;;;;;;;2.97;1.60;;;;;;;;;;5069707;28;20081;-63
2023/08/30 12:58:03;;;;;;;3.37;1.77;;;;;;;;;;5069540;28;20025;-63
2023/08/30 13:00:29;;;;;;;12.80;2.23;;;;;;;;;;5069816;28;20567;-63
2023/08/30 13:02:56;;;;;;;3.83;2.10;;;;;;;;;;5087814;28;20023;-63
2023/08/30 13:05:23;;;;;;;3.27;2.33;;;;;;;;;;5095158;28;20028;-63
2023/08/30 13:07:50;;;;;;;4.23;2.33;;;;;;;;;;5094956;28;20107;-63
2023/08/30 13:10:16;;;;;;;5.00;2.37;;;;;;;;;;5076910;28;20413;-63
2023/08/30 13:12:43;;;;;;;4.23;2.13;;;;;;;;;;5080997;28;20039;-63
2023/08/30 13:15:10;;;;;;;5.27;2.50;;;;;;;;;;5070512;28;20028;-63
2023/08/30 13:17:37;;;;;;;4.83;2.60;;;;;;;;;;5069703;28;20032;-63
2023/08/30 13:20:04;;;;;;;3.03;2.07;;;;;;;;;;5069225;28;20082;-63
2023/08/30 13:22:31;;;;;;;6.07;2.33;;;;;;;;;;5080430;28;20107;-64
2023/08/30 13:24:58;;;;;;;5.37;2.60;;;;;;;;;;5092380;28;20028;-63
2023/08/30 13:27:24;;;;;;;2.30;1.70;;;;;;;;;;5094320;28;20039;-64
2023/08/30 13:29:51;;;;;;;3.23;2.30;;;;;;;;;;5094399;28;20024;-63
2023/08/30 13:32:18;;;;;;;5.00;2.57;;;;;;;;;;5075396;28;20036;-63
2023/08/30 13:34:45;;;;;;;2.60;2.03;;;;;;;;;;5074254;28;20475;-63
2023/08/30 13:37:12;;;;;;;3.17;2.10;;;;;;;;;;5070765;28;20114;-63
2023/08/30 13:39:39;;;;;;;2.23;1.13;;;;;;;;;;5069042;28;20028;-63
2023/08/30 13:42:06;;;;;;;7.23;2.03;;;;;;;;;;5085303;28;20522;-63
2023/08/30 13:44:35;;;;;;;3.90;2.20;;;;;;;;;;5088963;28;20074;-63
2023/08/30 13:47:02;;;;;;;3.67;2.37;;;;;;;;;;5091664;28;20574;-63
2023/08/30 13:49:29;;;;;;;2.53;1.90;;;;;;;;;;5094327;28;20016;-63
2023/08/30 13:51:56;;;;;;;5.47;2.30;;;;;;;;;;5078789;28;20479;-63
2023/08/30 13:54:23;;;;;;;2.73;1.80;;;;;;;;;;5086456;28;20024;-63
2023/08/30 13:56:49;;;;;;;4.13;2.10;;;;;;;;;;5094009;28;20030;-63
2023/08/30 13:59:16;;;;;;;3.37;1.80;;;;;;;;;;5090143;28;20099;-63
2023/08/30 14:01:43;;;;;;;6.80;1.93;;;;;;;;;;5088949;28;20490;-63
2023/08/30 14:04:10;;;;;;;4.67;2.07;;;;;;;;;;5059925;28;20029;-63
2023/08/30 14:06:36;;;;;;;3.43;2.23;;;;;;;;;;5068573;28;20024;-63
2023/08/30 14:09:04;;;;;;;3.73;1.67;;;;;;;;;;5072121;28;20082;-63
2023/08/30 14:11:31;;;;;;;2.07;1.70;;;;;;;;;;5093590;28;20021;-63
2023/08/30 14:13:58;;;;;;;2.10;1.67;;;;;;;;;;5093410;28;20471;-63
2023/08/30 14:16:25;;;;;;;3.17;2.40;;;;;;;;;;5093551;28;20107;-63
2023/08/30 14:18:51;;;;;;;3.27;2.03;;;;;;;;;;5093311;28;20554;-63
2023/08/30 14:21:18;;;;;;;3.37;2.23;;;;;;;;;;5071104;28;20082;-63
2023/08/30 14:23:45;;;;;;;3.73;2.40;;;;;;;;;;5068259;28;20103;-63
2023/08/30 14:26:12;;;;;;;5.37;3.27;;;;;;;;;;5068273;28;20047;-63
2023/08/30 14:28:42;;;;;;;3.43;2.67;;;;;;;;;;5067816;28;20159;-63
2023/08/30 14:31:12;;;;;;;6.83;2.57;;;;;;;;;;5072603;28;20378;-63
2023/08/30 14:33:38;;;;;;;4.07;2.50;;;;;;;;;;5093325;28;20374;-63
2023/08/30 14:36:10;;;;;;;4.37;2.87;;;;;;;;;;5092631;28;20620;-63
2023/08/30 14:38:37;;;;;;;4.30;2.87;;;;;;;;;;5092972;28;20478;-63
2023/08/30 14:41:03;;;;;;;5.97;3.00;;;;;;;;;;5093086;28;20028;-64
2023/08/30 14:43:30;;;;;;;6.83;2.90;;;;;;;;;;5082449;28;20077;-64
2023/08/30 14:46:04;;;;;;;25.27;2.50;;;;;;;;;;5069308;28;20024;-65